createdAt,value
2018-02-05T00:00:16.119Z,24.90
2018-02-05T00:01:16.089Z,24.70
2018-02-05T00:02:16.065Z,26.90
2018-02-05T00:03:16.034Z,27.40
2018-02-05T00:04:16.015Z,26.90
2018-02-05T00:05:15.996Z,26.60
2018-02-05T00:06:15.967Z,26.40
2018-02-05T00:07:15.937Z,27.90
2018-02-05T00:08:15.913Z,27.90
2018-02-05T00:09:15.906Z,25.30
2018-02-05T00:10:15.865Z,26.20
2018-02-05T00:11:15.838Z,24.50
2018-02-05T00:12:15.834Z,25.90
2018-02-05T00:13:15.788Z,27.10
2018-02-05T00:14:15.774Z,26.80
2018-02-05T00:15:15.737Z,24.60
2018-02-05T00:16:15.716Z,25.00
2018-02-05T00:17:15.689Z,25.60
2018-02-05T00:18:15.662Z,27.40
2018-02-05T00:19:15.638Z,27.30
2018-02-05T00:20:15.624Z,25.80
2018-02-05T00:21:15.590Z,26.10
2018-02-05T00:22:15.564Z,24.40
2018-02-05T00:23:15.560Z,26.40
2018-02-05T00:24:15.518Z,29.10
2018-02-05T00:25:15.492Z,27.70
2018-02-05T00:26:15.464Z,25.50
2018-02-05T00:27:15.442Z,25.60
2018-02-05T00:28:15.420Z,26.00
2018-02-05T00:29:15.391Z,27.50
2018-02-05T00:30:15.369Z,26.10
2018-02-05T00:31:15.340Z,27.40
2018-02-05T00:32:15.322Z,25.40
2018-02-05T00:33:15.293Z,25.00
2018-02-05T00:34:15.270Z,25.60
2018-02-05T00:35:15.294Z,26.70
2018-02-05T00:36:15.223Z,26.20
2018-02-05T00:37:15.189Z,25.60
2018-02-05T00:38:15.170Z,25.40
2018-02-05T00:39:15.139Z,24.60
2018-02-05T00:40:15.171Z,26.20
2018-02-05T00:41:15.090Z,24.60
2018-02-05T00:42:15.064Z,26.50
2018-02-05T00:43:15.044Z,26.00
2018-02-05T00:44:15.018Z,26.70
2018-02-05T00:45:15.017Z,28.40
2018-02-05T00:46:14.963Z,26.50
2018-02-05T00:47:14.944Z,26.20
2018-02-05T00:48:14.919Z,24.70
2018-02-05T00:49:14.890Z,24.70
2018-02-05T00:50:14.868Z,25.70
2018-02-05T00:51:14.841Z,25.80
2018-02-05T00:52:14.817Z,24.60
2018-02-05T00:53:14.791Z,24.10
2018-02-05T00:54:14.767Z,25.10
2018-02-05T00:55:14.782Z,25.00
2018-02-05T00:56:14.721Z,23.90
2018-02-05T00:57:14.866Z,24.50
2018-02-05T00:58:14.669Z,25.60
2018-02-05T00:59:14.642Z,25.40
2018-02-05T01:00:14.730Z,25.50
2018-02-05T01:01:14.591Z,24.60
2018-02-05T01:02:14.577Z,25.10
2018-02-05T01:03:14.597Z,26.20
2018-02-05T01:04:14.517Z,26.00
2018-02-05T01:05:14.492Z,25.60
2018-02-05T01:06:14.481Z,25.80
2018-02-05T01:07:14.442Z,23.70
2018-02-05T01:08:14.417Z,25.70
2018-02-05T01:09:14.413Z,25.80
2018-02-05T01:10:14.365Z,26.30
2018-02-05T01:11:14.340Z,24.60
2018-02-05T01:12:14.316Z,25.00
2018-02-05T01:13:14.297Z,25.70
2018-02-05T01:14:14.268Z,26.80
2018-02-05T01:15:14.239Z,24.80
2018-02-05T01:16:14.216Z,26.20
2018-02-05T01:17:14.192Z,25.70
2018-02-05T01:18:14.164Z,25.00
2018-02-05T01:19:14.147Z,24.70
2018-02-05T01:20:14.112Z,25.10
2018-02-05T01:21:14.090Z,26.00
2018-02-05T01:22:14.063Z,26.60
2018-02-05T01:23:14.039Z,25.20
2018-02-05T01:24:14.018Z,26.60
2018-02-05T01:25:13.989Z,25.90
2018-02-05T01:26:13.966Z,25.60
2018-02-05T01:27:13.943Z,26.30
2018-02-05T01:28:13.915Z,26.40
2018-02-05T01:29:13.886Z,25.30
2018-02-05T01:30:13.891Z,24.90
2018-02-05T01:31:13.840Z,25.80
2018-02-05T01:32:13.808Z,25.90
2018-02-05T01:33:13.849Z,25.80
2018-02-05T01:34:13.758Z,26.20
2018-02-05T01:35:13.749Z,26.30
2018-02-05T01:36:13.747Z,27.10
2018-02-05T01:37:13.689Z,26.30
2018-02-05T01:38:13.672Z,25.00
2018-02-05T01:39:13.634Z,25.90
2018-02-05T01:40:13.604Z,25.50
2018-02-05T01:41:13.589Z,25.50
2018-02-05T01:42:13.555Z,25.10
2018-02-05T01:43:13.535Z,26.00
2018-02-05T01:44:13.509Z,25.80
2018-02-05T01:45:13.481Z,24.80
2018-02-05T01:46:13.455Z,24.70
2018-02-05T01:47:13.433Z,25.90
2018-02-05T01:48:13.402Z,25.50
2018-02-05T01:49:13.680Z,25.60
2018-02-05T01:50:13.356Z,25.30
2018-02-05T01:51:13.325Z,24.80
2018-02-05T01:52:13.300Z,24.20
2018-02-05T01:53:13.274Z,24.40
2018-02-05T01:54:13.250Z,25.40
2018-02-05T01:55:13.240Z,26.10
2018-02-05T01:56:13.200Z,25.40
2018-02-05T01:57:13.175Z,26.20
2018-02-05T01:58:13.220Z,25.20
2018-02-05T01:59:13.122Z,26.60
2018-02-05T02:00:13.100Z,25.60
2018-02-05T02:01:13.129Z,25.80
2018-02-05T02:02:13.049Z,24.70
2018-02-05T02:03:13.021Z,24.70
2018-02-05T02:04:12.999Z,23.90
2018-02-05T02:05:12.972Z,25.90
2018-02-05T02:06:12.947Z,25.50
2018-02-05T02:07:12.919Z,24.50
2018-02-05T02:08:12.897Z,23.40
2018-02-05T02:09:12.868Z,24.50
2018-02-05T02:10:12.847Z,24.50
2018-02-05T02:11:12.817Z,24.50
2018-02-05T02:12:12.797Z,23.80
2018-02-05T02:13:12.766Z,23.50
2018-02-05T02:14:12.743Z,24.20
2018-02-05T02:15:12.717Z,24.10
2018-02-05T02:16:12.696Z,24.10
2018-02-05T02:17:12.667Z,23.40
2018-02-05T02:18:12.641Z,23.10
2018-02-05T02:19:12.626Z,23.70
2018-02-05T02:20:12.591Z,23.10
2018-02-05T02:21:12.591Z,23.40
2018-02-05T02:22:12.539Z,24.50
2018-02-05T02:23:12.516Z,23.50
2018-02-05T02:24:12.501Z,22.70
2018-02-05T02:25:12.474Z,23.10
2018-02-05T02:26:12.439Z,23.80
2018-02-05T02:27:12.432Z,23.40
2018-02-05T02:28:12.389Z,23.10
2018-02-05T02:29:12.367Z,23.50
2018-02-05T02:30:12.393Z,23.70
2018-02-05T02:31:12.314Z,23.10
2018-02-05T02:32:12.287Z,23.10
2018-02-05T02:33:12.265Z,23.80
2018-02-05T02:34:12.242Z,24.10
2018-02-05T02:35:12.277Z,23.60
2018-02-05T02:36:12.187Z,24.70
2018-02-05T02:37:12.165Z,24.30
2018-02-05T02:38:12.143Z,24.20
2018-02-05T02:39:12.108Z,24.90
2018-02-05T02:40:12.084Z,25.00
2018-02-05T02:41:12.063Z,24.70
2018-02-05T02:42:12.034Z,24.20
2018-02-05T02:43:12.007Z,24.80
2018-02-05T02:44:11.983Z,24.90
2018-02-05T02:45:11.958Z,25.50
2018-02-05T02:46:11.933Z,25.20
2018-02-05T02:47:11.910Z,25.20
2018-02-05T02:48:11.882Z,25.70
2018-02-05T02:49:11.855Z,26.60
2018-02-05T02:50:11.828Z,26.40
2018-02-05T02:51:11.803Z,26.30
2018-02-05T02:52:11.775Z,25.70
2018-02-05T02:53:11.752Z,26.00
2018-02-05T02:54:11.725Z,25.30
2018-02-05T02:55:11.696Z,25.90
2018-02-05T02:56:11.674Z,25.40
2018-02-05T02:57:11.734Z,25.50
2018-02-05T02:58:11.621Z,25.20
2018-02-05T02:59:11.598Z,24.70
2018-02-05T03:00:11.571Z,25.40
2018-02-05T03:01:11.546Z,24.60
2018-02-05T03:02:11.520Z,24.80
2018-02-05T03:03:11.494Z,24.40
2018-02-05T03:04:11.470Z,23.80
2018-02-05T03:05:11.442Z,23.70
2018-02-05T03:06:11.416Z,24.60
2018-02-05T03:07:11.392Z,26.60
2018-02-05T03:08:11.365Z,25.50
2018-02-05T03:09:11.339Z,27.70
2018-02-05T03:10:11.312Z,25.00
2018-02-05T03:11:11.286Z,25.40
2018-02-05T03:12:11.287Z,24.30
2018-02-05T03:13:11.234Z,24.60
2018-02-05T03:14:11.209Z,24.80
2018-02-05T03:15:11.184Z,24.20
2018-02-05T03:16:11.159Z,24.80
2018-02-05T03:17:11.133Z,25.60
2018-02-05T03:18:11.105Z,23.90
2018-02-05T03:19:11.084Z,25.00
2018-02-05T03:20:11.054Z,24.60
2018-02-05T03:21:11.030Z,24.70
2018-02-05T03:22:11.103Z,24.40
2018-02-05T03:23:10.987Z,25.00
2018-02-05T03:24:10.951Z,25.60
2018-02-05T03:25:10.928Z,25.60
2018-02-05T03:26:10.897Z,24.50
2018-02-05T03:27:10.872Z,24.70
2018-02-05T03:28:10.847Z,25.10
2018-02-05T03:29:10.820Z,24.20
2018-02-05T03:30:10.797Z,23.60
2018-02-05T03:31:10.768Z,23.90
2018-02-05T03:32:10.741Z,23.80
2018-02-05T03:33:10.759Z,24.20
2018-02-05T03:34:10.688Z,23.90
2018-02-05T03:35:10.666Z,24.60
2018-02-05T03:36:10.640Z,25.60
2018-02-05T03:37:10.621Z,24.10
2018-02-05T03:38:10.586Z,24.40
2018-02-05T03:39:10.560Z,24.10
2018-02-05T03:40:10.546Z,23.70
2018-02-05T03:41:10.508Z,24.60
2018-02-05T03:42:10.484Z,23.60
2018-02-05T03:43:10.455Z,25.30
2018-02-05T03:44:10.430Z,23.80
2018-02-05T03:45:10.405Z,24.10
2018-02-05T03:46:10.385Z,23.80
2018-02-05T03:47:10.355Z,23.80
2018-02-05T03:48:10.324Z,23.00
2018-02-05T03:49:10.337Z,23.50
2018-02-05T03:50:10.274Z,23.60
2018-02-05T03:51:10.248Z,22.60
2018-02-05T03:52:10.278Z,24.60
2018-02-05T03:53:10.197Z,24.70
2018-02-05T03:54:10.174Z,23.50
2018-02-05T03:55:10.145Z,23.70
2018-02-05T03:56:10.119Z,24.30
2018-02-05T03:57:10.094Z,22.80
2018-02-05T03:58:10.074Z,23.20
2018-02-05T03:59:10.044Z,22.80
2018-02-05T04:00:10.016Z,21.80
2018-02-05T04:01:09.988Z,23.20
2018-02-05T04:02:09.965Z,23.10
2018-02-05T04:03:09.937Z,21.80
2018-02-05T04:04:09.913Z,21.80
2018-02-05T04:05:09.887Z,22.50
2018-02-05T04:06:09.857Z,23.10
2018-02-05T04:07:09.833Z,21.40
2018-02-05T04:08:09.806Z,20.50
2018-02-05T04:09:09.782Z,21.60
2018-02-05T04:10:09.754Z,21.50
2018-02-05T04:11:09.732Z,21.80
2018-02-05T04:12:09.705Z,21.90
2018-02-05T04:13:09.679Z,21.00
2018-02-05T04:14:09.760Z,21.40
2018-02-05T04:15:09.625Z,21.50
2018-02-05T04:16:09.603Z,21.50
2018-02-05T04:17:09.588Z,21.00
2018-02-05T04:18:09.551Z,22.20
2018-02-05T04:19:09.523Z,21.00
2018-02-05T04:20:09.499Z,20.80
2018-02-05T04:21:09.472Z,22.60
2018-02-05T04:22:09.445Z,21.30
2018-02-05T04:23:09.419Z,21.90
2018-02-05T04:24:09.396Z,21.40
2018-02-05T04:25:09.420Z,20.20
2018-02-05T04:26:09.350Z,22.80
2018-02-05T04:27:09.320Z,21.30
2018-02-05T04:28:09.295Z,20.80
2018-02-05T04:29:09.268Z,19.50
2018-02-05T04:30:09.238Z,20.50
2018-02-05T04:31:09.221Z,20.90
2018-02-05T04:32:09.188Z,21.30
2018-02-05T04:33:09.164Z,19.40
2018-02-05T04:34:09.138Z,21.30
2018-02-05T04:35:09.123Z,20.50
2018-02-05T04:36:09.088Z,20.20
2018-02-05T04:37:09.071Z,21.80
2018-02-05T04:38:09.037Z,20.10
2018-02-05T04:39:09.010Z,20.50
2018-02-05T04:40:08.993Z,19.90
2018-02-05T04:41:08.960Z,20.50
2018-02-05T04:42:08.937Z,20.10
2018-02-05T04:43:08.921Z,20.50
2018-02-05T04:44:08.887Z,20.30
2018-02-05T04:45:08.865Z,19.90
2018-02-05T04:46:08.831Z,19.40
2018-02-05T04:47:08.818Z,19.50
2018-02-05T04:48:08.782Z,20.10
2018-02-05T04:49:08.756Z,19.60
2018-02-05T04:50:08.736Z,19.90
2018-02-05T04:51:08.707Z,20.00
2018-02-05T04:52:08.678Z,20.60
2018-02-05T04:53:08.758Z,19.00
2018-02-05T04:54:08.632Z,19.60
2018-02-05T04:55:08.604Z,19.80
2018-02-05T04:56:08.630Z,19.40
2018-02-05T04:57:08.556Z,19.60
2018-02-05T04:58:08.526Z,19.70
2018-02-05T04:59:08.503Z,19.50
2018-02-05T05:00:08.482Z,21.40
2018-02-05T05:01:08.449Z,19.70
2018-02-05T05:02:08.425Z,19.10
2018-02-05T05:03:08.399Z,19.80
2018-02-05T05:04:08.375Z,19.20
2018-02-05T05:05:08.350Z,20.10
2018-02-05T05:06:08.323Z,20.20
2018-02-05T05:07:08.296Z,21.00
2018-02-05T05:08:08.273Z,19.70
2018-02-05T05:09:08.246Z,20.60
2018-02-05T05:10:08.236Z,20.40
2018-02-05T05:11:08.197Z,20.00
2018-02-05T05:12:08.171Z,20.50
2018-02-05T05:13:08.145Z,21.10
2018-02-05T05:14:08.124Z,20.10
2018-02-05T05:15:08.097Z,20.50
2018-02-05T05:16:08.068Z,20.00
2018-02-05T05:17:08.046Z,20.00
2018-02-05T05:18:08.018Z,20.20
2018-02-05T05:19:07.996Z,19.10
2018-02-05T05:20:07.966Z,20.30
2018-02-05T05:21:07.945Z,19.30
2018-02-05T05:22:07.915Z,21.10
2018-02-05T05:23:07.891Z,20.50
2018-02-05T05:24:07.871Z,20.10
2018-02-05T05:25:07.842Z,20.70
2018-02-05T05:26:07.834Z,20.70
2018-02-05T05:27:07.800Z,20.90
2018-02-05T05:28:07.772Z,19.60
2018-02-05T05:29:07.749Z,20.50
2018-02-05T05:30:07.714Z,20.40
2018-02-05T05:31:07.699Z,20.40
2018-02-05T05:32:07.677Z,20.80
2018-02-05T05:33:07.641Z,19.90
2018-02-05T05:34:07.913Z,21.10
2018-02-05T05:35:07.591Z,20.70
2018-02-05T05:36:07.566Z,20.00
2018-02-05T05:37:07.540Z,20.10
2018-02-05T05:38:07.514Z,20.80
2018-02-05T05:39:07.489Z,21.20
2018-02-05T05:40:07.473Z,20.60
2018-02-05T05:41:07.440Z,20.80
2018-02-05T05:42:07.414Z,20.70
2018-02-05T05:43:07.390Z,19.30
2018-02-05T05:44:07.367Z,19.70
2018-02-05T05:45:07.341Z,20.70
2018-02-05T05:46:07.311Z,19.30
2018-02-05T05:47:07.288Z,20.20
2018-02-05T05:48:07.270Z,20.70
2018-02-05T05:49:07.248Z,20.50
2018-02-05T05:50:07.211Z,19.90
2018-02-05T05:51:07.198Z,21.20
2018-02-05T05:52:07.160Z,20.90
2018-02-05T05:53:07.139Z,19.70
2018-02-05T05:54:07.230Z,19.10
2018-02-05T05:55:07.088Z,20.50
2018-02-05T05:56:07.066Z,20.60
2018-02-05T05:57:07.068Z,20.20
2018-02-05T05:58:07.017Z,21.20
2018-02-05T05:59:06.983Z,19.90
2018-02-05T06:00:06.992Z,19.80
2018-02-05T06:01:07.245Z,20.10
2018-02-05T06:02:06.907Z,20.60
2018-02-05T06:03:06.880Z,21.20
2018-02-05T06:04:06.857Z,19.20
2018-02-05T06:05:06.835Z,20.70
2018-02-05T06:06:06.806Z,20.00
2018-02-05T06:07:06.786Z,21.20
2018-02-05T06:08:06.783Z,21.00
2018-02-05T06:09:06.739Z,20.10
2018-02-05T06:10:06.707Z,20.30
2018-02-05T06:11:06.686Z,20.10
2018-02-05T06:12:06.658Z,21.50
2018-02-05T06:13:06.662Z,22.30
2018-02-05T06:14:06.604Z,20.90
2018-02-05T06:15:06.579Z,20.90
2018-02-05T06:16:06.557Z,21.40
2018-02-05T06:17:06.532Z,21.50
2018-02-05T06:18:06.507Z,21.80
2018-02-05T06:19:06.484Z,21.60
2018-02-05T06:20:06.453Z,21.30
2018-02-05T06:21:06.432Z,21.10
2018-02-05T06:22:06.424Z,20.40
2018-02-05T06:23:06.379Z,21.80
2018-02-05T06:24:06.365Z,21.60
2018-02-05T06:25:06.335Z,21.80
2018-02-05T06:26:06.304Z,22.70
2018-02-05T06:27:06.279Z,21.70
2018-02-05T06:28:06.261Z,22.40
2018-02-05T06:29:06.228Z,22.30
2018-02-05T06:30:06.275Z,22.20
2018-02-05T06:31:06.176Z,22.00
2018-02-05T06:32:06.153Z,22.20
2018-02-05T06:33:06.140Z,22.90
2018-02-05T06:34:06.102Z,23.20
2018-02-05T06:35:06.079Z,23.70
2018-02-05T06:36:06.079Z,25.10
2018-02-05T06:37:06.032Z,26.10
2018-02-05T06:38:06.004Z,22.90
2018-02-05T06:39:05.978Z,22.80
2018-02-05T06:40:05.959Z,23.00
2018-02-05T06:41:05.927Z,23.40
2018-02-05T06:42:05.901Z,22.80
2018-02-05T06:43:05.884Z,23.10
2018-02-05T06:44:05.851Z,22.20
2018-02-05T06:45:05.831Z,24.20
2018-02-05T06:46:05.803Z,22.90
2018-02-05T06:47:05.777Z,24.30
2018-02-05T06:48:05.750Z,23.50
2018-02-05T06:49:05.725Z,23.60
2018-02-05T06:50:05.701Z,22.60
2018-02-05T06:51:05.675Z,22.40
2018-02-05T06:52:05.653Z,21.50
2018-02-05T06:53:05.629Z,23.80
2018-02-05T06:54:05.600Z,23.60
2018-02-05T06:55:05.575Z,23.30
2018-02-05T06:56:05.550Z,22.60
2018-02-05T06:57:05.530Z,22.10
2018-02-05T06:58:05.499Z,24.20
2018-02-05T06:59:05.479Z,23.90
2018-02-05T07:00:05.460Z,23.10
2018-02-05T07:01:05.429Z,23.80
2018-02-05T07:02:05.405Z,23.60
2018-02-05T07:03:05.379Z,23.00
2018-02-05T07:04:05.350Z,22.60
2018-02-05T07:05:05.334Z,22.50
2018-02-05T07:06:05.323Z,22.10
2018-02-05T07:07:05.279Z,21.80
2018-02-05T07:08:05.254Z,22.00
2018-02-05T07:09:05.320Z,20.80
2018-02-05T07:10:05.207Z,22.20
2018-02-05T07:11:05.177Z,22.30
2018-02-05T07:12:05.152Z,21.90
2018-02-05T07:13:05.135Z,20.80
2018-02-05T07:14:05.100Z,20.80
2018-02-05T07:15:05.086Z,20.80
2018-02-05T07:16:05.051Z,20.50
2018-02-05T07:17:05.028Z,20.00
2018-02-05T07:18:05.000Z,20.50
2018-02-05T07:19:04.975Z,20.40
2018-02-05T07:20:04.950Z,24.30
2018-02-05T07:21:04.924Z,25.80
2018-02-05T07:22:04.903Z,23.20
2018-02-05T07:23:04.896Z,24.10
2018-02-05T07:24:04.852Z,19.90
2018-02-05T07:25:04.825Z,23.10
2018-02-05T07:26:04.800Z,22.60
2018-02-05T07:27:04.775Z,21.20
2018-02-05T07:28:04.832Z,21.40
2018-02-05T07:29:04.725Z,20.80
2018-02-05T07:30:04.698Z,16.20
2018-02-05T07:31:04.715Z,19.50
2018-02-05T07:32:04.647Z,19.10
2018-02-05T07:33:04.625Z,19.70
2018-02-05T07:34:04.599Z,19.20
2018-02-05T07:35:04.574Z,19.80
2018-02-05T07:36:04.547Z,19.60
2018-02-05T07:37:04.525Z,19.60
2018-02-05T07:38:04.534Z,20.30
2018-02-05T07:39:04.495Z,21.30
2018-02-05T07:40:04.452Z,21.10
2018-02-05T07:41:04.429Z,21.60
2018-02-05T07:42:04.395Z,21.30
2018-02-05T07:43:04.373Z,21.60
2018-02-05T07:44:04.344Z,21.00
2018-02-05T07:45:04.325Z,20.70
2018-02-05T07:46:04.295Z,19.20
2018-02-05T07:47:04.273Z,20.80
2018-02-05T07:48:04.248Z,20.30
2018-02-05T07:49:04.223Z,21.50
2018-02-05T07:50:04.195Z,20.50
2018-02-05T07:51:04.174Z,19.00
2018-02-05T07:52:04.148Z,19.30
2018-02-05T07:53:04.123Z,18.30
2018-02-05T07:54:04.097Z,19.80
2018-02-05T07:55:04.077Z,19.80
2018-02-05T07:56:04.082Z,19.80
2018-02-05T07:57:04.022Z,19.80
2018-02-05T07:58:04.002Z,18.10
2018-02-05T07:59:03.971Z,19.50
2018-02-05T08:00:03.948Z,19.70
2018-02-05T08:01:03.938Z,18.10
2018-02-05T08:02:03.896Z,18.10
2018-02-05T08:03:03.870Z,19.20
2018-02-05T08:04:03.858Z,17.70
2018-02-05T08:05:03.842Z,17.60
2018-02-05T08:06:03.802Z,17.90
2018-02-05T08:07:03.851Z,17.60
2018-02-05T08:08:03.746Z,16.40
2018-02-05T08:09:03.727Z,18.20
2018-02-05T08:10:03.700Z,18.10
2018-02-05T08:11:03.669Z,18.00
2018-02-05T08:12:03.649Z,18.40
2018-02-05T08:13:03.626Z,17.90
2018-02-05T08:14:03.591Z,18.20
2018-02-05T08:15:03.572Z,17.00
2018-02-05T08:16:03.542Z,17.70
2018-02-05T08:17:03.516Z,18.10
2018-02-05T08:18:03.489Z,18.40
2018-02-05T08:19:03.464Z,18.20
2018-02-05T08:20:03.439Z,18.50
2018-02-05T08:21:03.413Z,18.80
2018-02-05T08:22:03.388Z,17.70
2018-02-05T08:23:03.362Z,18.90
2018-02-05T08:24:03.340Z,19.20
2018-02-05T08:25:03.314Z,18.80
2018-02-05T08:26:03.290Z,17.50
2018-02-05T08:27:03.264Z,18.60
2018-02-05T08:28:03.237Z,19.30
2018-02-05T08:29:03.212Z,18.60
2018-02-05T08:30:03.187Z,19.20
2018-02-05T08:31:03.161Z,19.40
2018-02-05T08:32:03.145Z,19.50
2018-02-05T08:33:03.109Z,19.00
2018-02-05T08:34:03.086Z,19.10
2018-02-05T08:35:03.059Z,19.00
2018-02-05T08:36:03.041Z,19.10
2018-02-05T08:37:03.016Z,18.70
2018-02-05T08:38:02.989Z,20.60
2018-02-05T08:39:02.966Z,17.20
2018-02-05T08:40:02.991Z,18.70
2018-02-05T08:41:02.912Z,19.50
2018-02-05T08:42:02.885Z,18.80
2018-02-05T08:43:02.870Z,19.80
2018-02-05T08:44:02.860Z,19.10
2018-02-05T08:45:02.821Z,17.60
2018-02-05T08:46:02.845Z,19.30
2018-02-05T08:47:02.757Z,19.90
2018-02-05T08:48:02.735Z,20.40
2018-02-05T08:49:02.717Z,19.80
2018-02-05T08:50:02.696Z,20.70
2018-02-05T08:51:02.657Z,19.90
2018-02-05T08:52:02.654Z,19.60
2018-02-05T08:53:02.650Z,19.80
2018-02-05T08:54:02.585Z,19.90
2018-02-05T08:55:02.567Z,19.40
2018-02-05T08:56:02.535Z,19.60
2018-02-05T08:57:02.517Z,20.40
2018-02-05T08:58:02.484Z,19.00
2018-02-05T08:59:02.460Z,18.60
2018-02-05T09:00:02.445Z,20.80
2018-02-05T09:01:02.421Z,18.60
2018-02-05T09:02:02.389Z,21.20
2018-02-05T09:03:02.366Z,20.10
2018-02-05T09:04:02.342Z,20.20
2018-02-05T09:05:02.396Z,19.90
2018-02-05T09:06:02.289Z,18.30
2018-02-05T09:07:02.267Z,20.00
2018-02-05T09:08:02.250Z,20.30
2018-02-05T09:09:02.215Z,19.90
2018-02-05T09:10:02.192Z,20.40
2018-02-05T09:11:02.165Z,19.70
2018-02-05T09:12:02.149Z,20.70
2018-02-05T09:13:02.120Z,19.60
2018-02-05T09:14:02.105Z,20.40
2018-02-05T09:15:02.086Z,20.40
2018-02-05T09:16:02.048Z,19.50
2018-02-05T09:17:02.023Z,20.20
2018-02-05T09:18:01.990Z,20.40
2018-02-05T09:19:01.971Z,20.90
2018-02-05T09:20:01.943Z,20.30
2018-02-05T09:21:01.921Z,18.80
2018-02-05T09:22:01.902Z,20.30
2018-02-05T09:23:01.870Z,19.20
2018-02-05T09:24:01.846Z,18.70
2018-02-05T09:25:01.823Z,20.00
2018-02-05T09:26:01.797Z,21.20
2018-02-05T09:27:01.812Z,18.10
2018-02-05T09:28:01.771Z,18.50
2018-02-05T09:29:01.733Z,21.00
2018-02-05T09:30:01.702Z,20.20
2018-02-05T09:31:01.675Z,19.70
2018-02-05T09:32:01.659Z,21.30
2018-02-05T09:33:01.628Z,21.40
2018-02-05T09:34:01.601Z,22.30
2018-02-05T09:35:01.594Z,22.30
2018-02-05T09:36:01.555Z,21.30
2018-02-05T09:37:01.532Z,21.00
2018-02-05T09:38:01.534Z,21.10
2018-02-05T09:39:01.485Z,19.80
2018-02-05T09:40:01.465Z,20.20
2018-02-05T09:41:01.442Z,21.30
2018-02-05T09:42:01.408Z,21.00
2018-02-05T09:43:01.387Z,22.20
2018-02-05T09:44:01.360Z,21.20
2018-02-05T09:45:01.335Z,20.10
2018-02-05T09:46:01.310Z,21.50
2018-02-05T09:47:01.297Z,21.70
2018-02-05T09:48:01.264Z,17.80
2018-02-05T09:49:01.240Z,20.80
2018-02-05T09:50:01.217Z,21.90
2018-02-05T09:51:01.200Z,21.50
2018-02-05T09:52:01.168Z,20.60
2018-02-05T09:53:01.148Z,21.30
2018-02-05T09:54:01.119Z,21.60
2018-02-05T09:55:01.102Z,18.60
2018-02-05T09:56:01.075Z,20.10
2018-02-05T09:57:01.046Z,21.30
2018-02-05T09:58:01.021Z,18.20
2018-02-05T09:59:00.999Z,21.40
2018-02-05T10:00:01.132Z,21.70
2018-02-05T10:01:00.996Z,22.30
2018-02-05T10:02:00.925Z,23.30
2018-02-05T10:03:00.905Z,20.70
2018-02-05T10:04:00.881Z,20.20
2018-02-05T10:05:00.862Z,20.50
2018-02-05T10:06:00.837Z,20.50
2018-02-05T10:07:00.809Z,16.60
2018-02-05T10:08:00.785Z,19.50
2018-02-05T10:09:00.768Z,21.90
2018-02-05T10:10:00.737Z,22.40
2018-02-05T10:11:00.723Z,19.80
2018-02-05T10:12:00.687Z,22.60
2018-02-05T10:13:00.664Z,21.70
2018-02-05T10:14:00.646Z,22.40
2018-02-05T10:15:00.613Z,22.30
2018-02-05T10:16:00.611Z,22.60
2018-02-05T10:17:00.575Z,21.00
2018-02-05T10:18:00.559Z,21.80
2018-02-05T10:19:00.519Z,23.30
2018-02-05T10:20:00.496Z,21.70
2018-02-05T10:21:00.473Z,20.80
2018-02-05T10:22:00.516Z,16.10
2018-02-05T10:23:00.423Z,22.60
2018-02-05T10:24:00.398Z,21.90
2018-02-05T10:25:00.377Z,22.90
2018-02-05T10:26:00.348Z,22.70
2018-02-05T10:27:00.331Z,21.90
2018-02-05T10:28:00.302Z,22.00
2018-02-05T10:29:00.277Z,20.50
2018-02-05T10:30:00.251Z,22.60
2018-02-05T10:31:00.240Z,22.20
2018-02-05T10:32:00.203Z,17.00
2018-02-05T10:33:00.196Z,18.90
2018-02-05T10:34:00.153Z,20.80
2018-02-05T10:35:00.131Z,20.60
2018-02-05T10:36:00.209Z,20.40
2018-02-05T10:37:00.086Z,18.30
2018-02-05T10:38:00.056Z,21.70
2018-02-05T10:39:00.043Z,20.10
2018-02-05T10:40:00.014Z,22.20
2018-02-05T10:41:00.012Z,22.50
2018-02-05T10:41:59.961Z,21.40
2018-02-05T10:42:59.943Z,21.70
2018-02-05T10:43:59.920Z,21.50
2018-02-05T10:44:59.885Z,22.30
2018-02-05T10:45:59.862Z,21.30
2018-02-05T10:46:59.834Z,22.30
2018-02-05T10:47:59.813Z,21.60
2018-02-05T10:48:59.796Z,21.70
2018-02-05T10:49:59.763Z,21.10
2018-02-05T10:50:59.739Z,21.80
2018-02-05T10:51:59.714Z,21.60
2018-02-05T10:52:59.692Z,20.50
2018-02-05T10:53:59.669Z,19.10
2018-02-05T10:54:59.755Z,20.70
2018-02-05T10:55:59.619Z,21.40
2018-02-05T10:56:59.609Z,21.30
2018-02-05T10:57:59.672Z,21.80
2018-02-05T10:58:59.550Z,21.80
2018-02-05T10:59:59.529Z,20.80
2018-02-05T11:00:59.515Z,20.50
2018-02-05T11:01:59.478Z,20.90
2018-02-05T11:02:59.453Z,21.10
2018-02-05T11:03:59.430Z,20.10
2018-02-05T11:04:59.408Z,19.00
2018-02-05T11:05:59.382Z,19.90
2018-02-05T11:06:59.361Z,20.80
2018-02-05T11:07:59.337Z,21.80
2018-02-05T11:08:59.330Z,21.70
2018-02-05T11:09:59.289Z,21.10
2018-02-05T11:10:59.274Z,20.30
2018-02-05T11:11:59.246Z,19.90
2018-02-05T11:12:59.224Z,20.50
2018-02-05T11:13:59.197Z,20.70
2018-02-05T11:14:59.176Z,20.90
2018-02-05T11:15:59.151Z,19.90
2018-02-05T11:16:59.144Z,20.10
2018-02-05T11:17:59.114Z,19.20
2018-02-05T11:18:59.092Z,19.00
2018-02-05T11:19:59.060Z,20.40
2018-02-05T11:20:59.047Z,19.60
2018-02-05T11:21:59.011Z,17.60
2018-02-05T11:22:58.997Z,19.50
2018-02-05T11:23:58.969Z,20.70
2018-02-05T11:24:58.957Z,19.50
2018-02-05T11:25:58.926Z,19.60
2018-02-05T11:26:58.895Z,19.70
2018-02-05T11:27:58.885Z,18.60
2018-02-05T11:28:58.846Z,20.00
2018-02-05T11:29:58.835Z,19.00
2018-02-05T11:30:58.905Z,17.50
2018-02-05T11:31:58.775Z,19.50
2018-02-05T11:32:58.754Z,18.30
2018-02-05T11:33:58.732Z,19.00
2018-02-05T11:34:58.710Z,14.90
2018-02-05T11:35:58.697Z,15.20
2018-02-05T11:36:58.681Z,19.10
2018-02-05T11:37:58.633Z,18.70
2018-02-05T11:38:58.613Z,15.40
2018-02-05T11:39:58.588Z,20.00
2018-02-05T11:40:58.569Z,18.20
2018-02-05T11:41:58.551Z,19.60
2018-02-05T11:42:58.538Z,18.50
2018-02-05T11:43:58.511Z,18.80
2018-02-05T11:44:58.471Z,19.50
2018-02-05T11:45:58.444Z,18.40
2018-02-05T11:46:58.423Z,18.50
2018-02-05T11:47:58.406Z,18.60
2018-02-05T11:48:58.410Z,14.60
2018-02-05T11:49:58.386Z,14.40
2018-02-05T11:50:58.334Z,19.00
2018-02-05T11:51:58.306Z,17.80
2018-02-05T11:52:58.383Z,18.50
2018-02-05T11:53:58.256Z,18.20
2018-02-05T11:54:58.232Z,18.00
2018-02-05T11:55:58.216Z,18.30
2018-02-05T11:56:58.193Z,18.30
2018-02-05T11:57:58.166Z,18.50
2018-02-05T11:58:58.140Z,16.50
2018-02-05T11:59:58.121Z,18.20
2018-02-05T12:00:58.094Z,17.60
2018-02-05T12:01:58.070Z,19.20
2018-02-05T12:02:58.057Z,17.60
2018-02-05T12:03:58.031Z,17.20
2018-02-05T12:04:58.003Z,16.30
2018-02-05T12:05:57.979Z,15.90
2018-02-05T12:06:58.010Z,14.30
2018-02-05T12:07:57.933Z,15.30
2018-02-05T12:08:57.915Z,16.90
2018-02-05T12:09:57.889Z,15.30
2018-02-05T12:10:57.868Z,14.00
2018-02-05T12:11:57.857Z,14.70
2018-02-05T12:12:57.827Z,17.40
2018-02-05T12:13:57.795Z,16.10
2018-02-05T12:14:57.785Z,15.60
2018-02-05T12:15:57.764Z,14.30
2018-02-05T12:16:57.723Z,16.20
2018-02-05T12:17:57.698Z,12.90
2018-02-05T12:18:57.697Z,15.30
2018-02-05T12:19:57.652Z,15.40
2018-02-05T12:20:57.630Z,15.20
2018-02-05T12:21:57.612Z,13.60
2018-02-05T12:22:57.769Z,15.30
2018-02-05T12:23:57.562Z,15.90
2018-02-05T12:24:57.547Z,17.00
2018-02-05T12:25:57.598Z,16.10
2018-02-05T12:26:57.497Z,15.90
2018-02-05T12:27:57.467Z,15.00
2018-02-05T12:28:57.481Z,16.00
2018-02-05T12:29:57.419Z,15.00
2018-02-05T12:30:57.396Z,13.80
2018-02-05T12:31:57.378Z,15.50
2018-02-05T12:32:57.354Z,12.30
2018-02-05T12:33:57.327Z,14.10
2018-02-05T12:34:57.308Z,15.80
2018-02-05T12:35:57.276Z,14.10
2018-02-05T12:36:57.261Z,15.30
2018-02-05T12:37:57.235Z,13.80
2018-02-05T12:38:57.207Z,14.40
2018-02-05T12:39:57.186Z,15.50
2018-02-05T12:40:57.165Z,15.10
2018-02-05T12:41:57.135Z,15.20
2018-02-05T12:42:57.115Z,15.40
2018-02-05T12:43:57.088Z,16.90
2018-02-05T12:44:57.066Z,14.60
2018-02-05T12:45:57.047Z,16.20
2018-02-05T12:46:57.025Z,15.90
2018-02-05T12:47:57.044Z,16.60
2018-02-05T12:48:56.973Z,15.80
2018-02-05T12:49:56.950Z,16.30
2018-02-05T12:50:57.029Z,16.70
2018-02-05T12:51:56.910Z,13.20